Terminal Aerodrome Forecast
Issued by NWS Upton, NY

Current Version | Previous Version | Text Only | Print | Product List | Glossary On
Versions: 1 2 3 4 5 6 7 8 9 10 11 12 13 14 15 16 17 18 19 20 21 22 23 24 25 26 27 28 29
429
FTUS41 KOKX 012240 AAB
TAFLGA
TAF AMD
KLGA 012240Z 0123/0218 06009KT 2SM -DZ BR BKN007
     FM020200 06008KT 2SM -DZ BR OVC005
     FM020500 06007KT 2SM -DZ BR OVC005
     FM021200 07007KT 3SM -DZ BR OVC007
     FM021700 10007KT 5SM BR SCT009 OVC015=

USA.gov is the U.S. government's official web portal to all federal, state and local government web resources and services.